createdAt,value
2018-08-22T00:00:44.617Z,101447.11
2018-08-22T00:03:14.172Z,101442.70
2018-08-22T00:05:43.740Z,101446.20
2018-08-22T00:08:13.244Z,101447.97
2018-08-22T00:10:42.773Z,101444.45
2018-08-22T00:13:12.520Z,101445.77
2018-08-22T00:15:42.073Z,101438.30
2018-08-22T00:18:11.634Z,101440.95
2018-08-22T00:20:41.276Z,101444.02
2018-08-22T00:23:10.836Z,101445.77
2018-08-22T00:25:40.376Z,101439.60
2018-08-22T00:28:09.952Z,101443.55
2018-08-22T00:30:39.493Z,101447.97
2018-08-22T00:33:09.396Z,101441.36
2018-08-22T00:35:39.219Z,101448.80
2018-08-22T00:38:08.759Z,101452.76
2018-08-22T00:40:38.293Z,101443.97
2018-08-22T00:43:07.840Z,101443.55
2018-08-22T00:45:37.430Z,101448.81
2018-08-22T00:48:07.047Z,101440.45
2018-08-22T00:50:36.698Z,101436.48
2018-08-22T00:53:06.204Z,101441.77
2018-08-22T00:55:35.862Z,101441.75
2018-08-22T00:58:05.391Z,101438.23
2018-08-22T01:00:34.922Z,101439.13
2018-08-22T01:03:05.853Z,101442.20
2018-08-22T01:05:35.449Z,101448.78
2018-08-22T01:08:04.964Z,101444.81
2018-08-22T01:10:34.560Z,101446.16
2018-08-22T01:13:04.144Z,101444.83
2018-08-22T01:15:40.228Z,101445.25
2018-08-22T01:18:09.791Z,101446.98
2018-08-22T01:20:39.412Z,101445.66
2018-08-22T01:23:09.044Z,101443.92
2018-08-22T01:25:38.711Z,101433.37
2018-08-22T01:28:12.362Z,101436.42
2018-08-22T01:30:41.796Z,101439.05
2018-08-22T01:33:11.227Z,101438.61
2018-08-22T01:35:40.624Z,101431.13
2018-08-22T01:38:10.052Z,101439.05
2018-08-22T01:40:39.525Z,101435.09
2018-08-22T01:43:08.895Z,101431.97
2018-08-22T01:45:38.344Z,101431.52
2018-08-22T01:48:07.742Z,101425.81
2018-08-22T01:50:37.238Z,101422.75
2018-08-22T01:53:06.763Z,101424.05
2018-08-22T01:55:36.257Z,101420.52
2018-08-22T01:58:05.875Z,101413.07
2018-08-22T02:00:35.572Z,101412.64
2018-08-22T02:03:04.988Z,101410.00
2018-08-22T02:05:34.437Z,101415.27
2018-08-22T02:08:03.862Z,101417.89
2018-08-22T02:10:33.307Z,101406.49
2018-08-22T02:13:02.727Z,101407.38
2018-08-22T02:15:32.210Z,101406.49
2018-08-22T02:18:01.702Z,101405.17
2018-08-22T02:20:31.187Z,101406.92
2018-08-22T02:23:00.608Z,101400.77
2018-08-22T02:25:30.014Z,101399.01
2018-08-22T02:27:59.457Z,101401.62
2018-08-22T02:30:28.917Z,101401.16
2018-08-22T02:32:58.360Z,101406.87
2018-08-22T02:35:27.898Z,101400.70
2018-08-22T02:37:57.364Z,101403.73
2018-08-22T02:40:26.774Z,101405.50
2018-08-22T02:42:56.194Z,101408.55
2018-08-22T02:45:25.610Z,101405.48
2018-08-22T02:47:55.037Z,101398.45
2018-08-22T02:50:24.540Z,101405.44
2018-08-22T02:52:54.940Z,101395.34
2018-08-22T02:55:24.341Z,101395.31
2018-08-22T02:57:53.744Z,101396.64
2018-08-22T03:00:23.186Z,101400.13
2018-08-22T03:02:52.600Z,101401.89
2018-08-22T03:05:22.058Z,101394.87
2018-08-22T03:07:51.493Z,101399.66
2018-08-22T03:10:20.953Z,101396.59
2018-08-22T03:12:50.406Z,101397.45
2018-08-22T03:15:26.440Z,101396.98
2018-08-22T03:17:55.837Z,101400.93
2018-08-22T03:20:25.240Z,101404.42
2018-08-22T03:22:54.897Z,101403.09
2018-08-22T03:25:24.302Z,101399.13
2018-08-22T03:27:53.745Z,101398.23
2018-08-22T03:30:23.295Z,101396.03
2018-08-22T03:32:53.380Z,101407.42
2018-08-22T03:35:22.828Z,101405.63
2018-08-22T03:37:52.271Z,101400.35
2018-08-22T03:40:21.739Z,101405.58
2018-08-22T03:42:51.150Z,101402.92
2018-08-22T03:45:20.660Z,101402.92
2018-08-22T03:47:50.046Z,101399.41
2018-08-22T03:50:19.530Z,101399.83
2018-08-22T03:52:49.150Z,101400.24
2018-08-22T03:55:18.564Z,101403.75
2018-08-22T03:57:48.069Z,101399.34
2018-08-22T04:00:17.733Z,101394.94
2018-08-22T04:02:47.185Z,101396.20
2018-08-22T04:05:16.586Z,101390.52
2018-08-22T04:07:46.202Z,101398.84
2018-08-22T04:10:15.605Z,101400.58
2018-08-22T04:12:45.048Z,101397.08
2018-08-22T04:15:14.518Z,101403.25
2018-08-22T04:17:43.948Z,101397.59
2018-08-22T04:20:19.715Z,101396.75
2018-08-22T04:22:49.137Z,101400.72
2018-08-22T04:25:18.574Z,101404.69
2018-08-22T04:27:48.165Z,101402.95
2018-08-22T04:30:17.593Z,101394.69
2018-08-22T04:32:47.043Z,101391.20
2018-08-22T04:35:16.492Z,101393.48
2018-08-22T04:37:45.959Z,101391.54
2018-08-22T04:40:15.391Z,101392.64
2018-08-22T04:42:44.829Z,101388.59
2018-08-22T04:45:14.238Z,101391.88
2018-08-22T04:47:43.675Z,101390.18
2018-08-22T04:50:13.105Z,101388.44
2018-08-22T04:52:42.549Z,101386.94
2018-08-22T04:55:12.033Z,101388.28
2018-08-22T04:57:41.500Z,101391.01
2018-08-22T05:00:11.241Z,101382.98
2018-08-22T05:02:40.720Z,101384.67
2018-08-22T05:05:10.455Z,101385.63
2018-08-22T05:07:39.908Z,101385.67
2018-08-22T05:10:09.361Z,101386.61
2018-08-22T05:12:38.797Z,101380.11
2018-08-22T05:15:08.229Z,101389.52
2018-08-22T05:17:37.644Z,101377.88
2018-08-22T05:20:07.105Z,101380.70
2018-08-22T05:22:36.523Z,101384.37
2018-08-22T05:25:06.016Z,101376.30
2018-08-22T05:27:35.601Z,101380.87
2018-08-22T05:30:05.825Z,101375.76
2018-08-22T05:32:35.301Z,101375.85
2018-08-22T05:35:05.224Z,101379.02
2018-08-22T05:37:34.669Z,101373.52
2018-08-22T05:40:04.155Z,101371.83
2018-08-22T05:42:33.661Z,101374.86
2018-08-22T05:45:03.277Z,101378.77
2018-08-22T05:47:32.697Z,101375.51
2018-08-22T05:50:02.116Z,101371.98
2018-08-22T05:52:31.765Z,101367.20
2018-08-22T05:55:01.206Z,101364.73
2018-08-22T05:57:30.814Z,101364.73
2018-08-22T06:00:00.172Z,101368.36
2018-08-22T06:02:29.592Z,101368.84
2018-08-22T06:04:59.182Z,101366.83
2018-08-22T06:07:28.631Z,101371.78
2018-08-22T06:09:58.080Z,101370.76
2018-08-22T06:12:27.559Z,101365.39
2018-08-22T06:14:56.965Z,101362.82
2018-08-22T06:17:26.445Z,101365.50
2018-08-22T06:19:55.892Z,101372.86
2018-08-22T06:22:25.297Z,101368.84
2018-08-22T06:24:54.725Z,101372.27
2018-08-22T06:27:24.214Z,101365.50
2018-08-22T06:29:53.605Z,101370.34
2018-08-22T06:32:23.021Z,101367.03
2018-08-22T06:34:52.443Z,101364.67
2018-08-22T06:37:21.858Z,101366.36
2018-08-22T06:39:51.302Z,101361.41
2018-08-22T06:42:20.804Z,101360.67
2018-08-22T06:44:50.724Z,101362.02
2018-08-22T06:47:20.216Z,101362.28
2018-08-22T06:49:49.667Z,101355.89
2018-08-22T06:52:19.281Z,101359.09
2018-08-22T06:54:48.728Z,101353.37
2018-08-22T06:57:18.173Z,101354.06
2018-08-22T06:59:47.592Z,101353.42
2018-08-22T07:02:17.024Z,101356.95
2018-08-22T07:04:46.480Z,101355.05
2018-08-22T07:07:15.987Z,101350.68
2018-08-22T07:09:45.408Z,101357.30
2018-08-22T07:12:15.026Z,101355.58
2018-08-22T07:14:44.441Z,101354.03
2018-08-22T07:17:13.853Z,101349.21
2018-08-22T07:19:43.333Z,101347.46
2018-08-22T07:22:12.970Z,101344.66
2018-08-22T07:24:42.629Z,101341.27
2018-08-22T07:27:12.260Z,101335.10
2018-08-22T07:29:41.776Z,101338.63
2018-08-22T07:32:11.325Z,101338.61
2018-08-22T07:34:40.849Z,101333.47
2018-08-22T07:37:10.565Z,101340.92
2018-08-22T07:39:40.056Z,101335.91
2018-08-22T07:42:09.710Z,101336.88
2018-08-22T07:44:39.116Z,101334.77
2018-08-22T07:47:09.202Z,101331.80
2018-08-22T07:49:38.744Z,101335.91
2018-08-22T07:52:08.771Z,101330.16
2018-08-22T07:54:44.714Z,101333.88
2018-08-22T07:57:15.643Z,101328.82
2018-08-22T07:59:45.355Z,101334.80
2018-08-22T08:02:14.792Z,101332.84
2018-08-22T08:04:44.264Z,101329.42
2018-08-22T08:07:13.993Z,101326.03
2018-08-22T08:09:44.148Z,101327.66
2018-08-22T08:12:13.629Z,101327.04
2018-08-22T08:14:45.041Z,101324.73
2018-08-22T08:17:14.576Z,101325.45
2018-08-22T08:19:43.995Z,101324.67
2018-08-22T08:22:13.495Z,101316.32
2018-08-22T08:24:43.006Z,101318.90
2018-08-22T08:27:12.462Z,101312.60
2018-08-22T08:29:41.900Z,101313.81
2018-08-22T08:32:11.332Z,101310.98
2018-08-22T08:34:40.823Z,101306.59
2018-08-22T08:37:10.289Z,101308.91
2018-08-22T08:39:39.735Z,101318.63
2018-08-22T08:42:09.229Z,101309.72
2018-08-22T08:44:38.781Z,101297.09
2018-08-22T08:47:08.227Z,101302.41
2018-08-22T08:49:37.737Z,101300.80
2018-08-22T08:52:07.112Z,101293.25
2018-08-22T08:54:36.553Z,101285.92
2018-08-22T08:57:06.011Z,101291.52
2018-08-22T08:59:35.626Z,101292.66
2018-08-22T09:02:05.106Z,101275.44
2018-08-22T09:04:34.602Z,101276.58
2018-08-22T09:07:04.224Z,101279.32
2018-08-22T09:09:33.788Z,101273.07
2018-08-22T09:12:03.277Z,101277.68
2018-08-22T09:14:32.761Z,101268.99
2018-08-22T09:17:02.174Z,101257.69
2018-08-22T09:19:31.614Z,101269.02
2018-08-22T09:22:01.062Z,101263.83
2018-08-22T09:24:30.537Z,101261.94
2018-08-22T09:26:59.933Z,101255.41
2018-08-22T09:29:29.387Z,101268.67
2018-08-22T09:31:58.823Z,101261.73
2018-08-22T09:34:28.295Z,101250.25
2018-08-22T09:36:57.767Z,101254.70
2018-08-22T09:39:27.268Z,101259.59
2018-08-22T09:41:56.646Z,101249.16
2018-08-22T09:44:26.105Z,101245.19
2018-08-22T09:46:55.531Z,101245.30
2018-08-22T09:49:25.008Z,101243.30
2018-08-22T09:51:54.433Z,101243.13
2018-08-22T09:54:23.962Z,101244.45
2018-08-22T09:56:53.376Z,101228.40
2018-08-22T09:59:22.830Z,101237.18
2018-08-22T10:01:52.252Z,101230.41
2018-08-22T10:04:21.721Z,101221.38
2018-08-22T10:06:51.853Z,101219.34
2018-08-22T10:09:22.425Z,101224.23
2018-08-22T10:11:51.947Z,101216.92
2018-08-22T10:14:21.390Z,101220.20
2018-08-22T10:16:50.899Z,101226.62
2018-08-22T10:19:20.392Z,101209.17
2018-08-22T10:21:49.807Z,101210.66
2018-08-22T10:24:19.252Z,101212.20
2018-08-22T10:26:48.675Z,101198.55
2018-08-22T10:29:18.206Z,101190.20
2018-08-22T10:31:47.604Z,101192.53
2018-08-22T10:34:17.012Z,101192.97
2018-08-22T10:36:46.418Z,101186.26
2018-08-22T10:39:15.815Z,101190.56
2018-08-22T10:41:45.283Z,101188.41
2018-08-22T10:44:15.141Z,101184.20
2018-08-22T10:46:44.564Z,101186.39
2018-08-22T10:49:13.992Z,101189.87
2018-08-22T10:51:43.437Z,101182.45
2018-08-22T10:54:12.841Z,101182.33
2018-08-22T10:56:42.240Z,101173.95
2018-08-22T10:59:11.623Z,101176.91
2018-08-22T11:01:41.029Z,101175.90
2018-08-22T11:04:10.413Z,101176.60
2018-08-22T11:06:39.854Z,101175.16
2018-08-22T11:09:10.409Z,101164.33
2018-08-22T11:11:39.910Z,101158.68
2018-08-22T11:14:09.640Z,101159.70
2018-08-22T11:16:39.067Z,101151.28
2018-08-22T11:19:08.475Z,101153.21
2018-08-22T11:21:54.820Z,101154.45
2018-08-22T11:24:41.222Z,101151.64
2018-08-22T11:27:27.519Z,101149.94
2018-08-22T11:30:13.845Z,101150.70
2018-08-22T11:33:00.478Z,101144.73
2018-08-22T11:35:28.277Z,101137.75
2018-08-22T11:37:57.705Z,101139.42
2018-08-22T11:40:27.133Z,101142.18
2018-08-22T11:42:56.553Z,101144.88
2018-08-22T11:45:25.986Z,101140.88
2018-08-22T11:47:55.437Z,101137.07
2018-08-22T11:50:24.840Z,101130.28
2018-08-22T11:52:54.257Z,101122.16
2018-08-22T11:55:23.824Z,101126.91
2018-08-22T11:57:53.212Z,101127.45
2018-08-22T12:00:22.632Z,101127.06
2018-08-22T12:02:52.241Z,101129.40
2018-08-22T12:05:21.649Z,101131.91
2018-08-22T12:07:51.529Z,101121.00
2018-08-22T12:10:21.071Z,101119.58
2018-08-22T12:12:50.513Z,101114.30
2018-08-22T12:15:20.015Z,101117.52
2018-08-22T12:17:50.777Z,101110.75
2018-08-22T12:20:20.801Z,101106.26
2018-08-22T12:22:50.244Z,101118.97
2018-08-22T12:25:19.880Z,101115.89
2018-08-22T12:27:49.302Z,101110.28
2018-08-22T12:30:18.805Z,101105.53
2018-08-22T12:32:48.240Z,101107.20
2018-08-22T12:35:17.644Z,101097.67
2018-08-22T12:37:47.085Z,101097.84
2018-08-22T12:40:16.463Z,101100.45
2018-08-22T12:42:45.834Z,101092.02
2018-08-22T12:45:15.232Z,101096.58
2018-08-22T12:47:44.693Z,101089.78
2018-08-22T12:50:16.192Z,101083.69
2018-08-22T12:52:45.648Z,101086.22
2018-08-22T12:55:15.051Z,101075.98
2018-08-22T12:57:44.488Z,101062.75
2018-08-22T13:00:13.927Z,101061.08
2018-08-22T13:02:43.520Z,101058.18
2018-08-22T13:05:12.988Z,101053.75
2018-08-22T13:07:42.428Z,101049.67
2018-08-22T13:10:11.839Z,101044.84
2018-08-22T13:12:41.255Z,101049.03
2018-08-22T13:15:11.178Z,101053.38
2018-08-22T13:17:40.570Z,101035.07
2018-08-22T13:20:09.997Z,101041.38
2018-08-22T13:22:39.585Z,101043.67
2018-08-22T13:25:09.012Z,101044.30
2018-08-22T13:27:38.428Z,101042.09
2018-08-22T13:30:08.364Z,101034.19
2018-08-22T13:32:37.818Z,101023.07
2018-08-22T13:35:07.989Z,101020.16
2018-08-22T13:37:37.770Z,101022.61
2018-08-22T13:40:07.293Z,101021.59
2018-08-22T13:42:36.863Z,101020.53
2018-08-22T13:45:07.173Z,101014.22
2018-08-22T13:47:36.668Z,101011.93
2018-08-22T13:50:06.149Z,101012.41
2018-08-22T13:52:35.608Z,101011.46
2018-08-22T13:55:05.177Z,101003.65
2018-08-22T13:57:34.611Z,101008.42
2018-08-22T14:00:04.334Z,101005.47
2018-08-22T14:02:33.740Z,101004.99
2018-08-22T14:05:03.168Z,101005.78
2018-08-22T14:07:32.744Z,101001.28
2018-08-22T14:10:02.255Z,100997.57
2018-08-22T14:12:31.651Z,100992.75
2018-08-22T14:15:01.091Z,100999.58
2018-08-22T14:17:30.528Z,100996.27
2018-08-22T14:19:59.959Z,100990.66
2018-08-22T14:22:29.490Z,100991.48
2018-08-22T14:24:58.853Z,100988.94
2018-08-22T14:27:28.504Z,100981.86
2018-08-22T14:29:57.949Z,100974.18
2018-08-22T14:32:27.448Z,100974.23
2018-08-22T14:34:56.881Z,100964.28
2018-08-22T14:37:26.317Z,100963.72
2018-08-22T14:39:55.722Z,100965.92
2018-08-22T14:42:25.185Z,100957.65
2018-08-22T14:44:54.700Z,100960.33
2018-08-22T14:47:24.067Z,100955.35
2018-08-22T14:49:53.478Z,100957.65
2018-08-22T14:52:22.918Z,100953.40
2018-08-22T14:54:52.412Z,100953.13
2018-08-22T14:57:22.356Z,100949.79
2018-08-22T14:59:51.760Z,100945.06
2018-08-22T15:02:21.237Z,100945.70
2018-08-22T15:04:50.605Z,100942.15
2018-08-22T15:07:20.164Z,100944.75
2018-08-22T15:09:49.592Z,100945.78
2018-08-22T15:12:19.062Z,100941.48
2018-08-22T15:14:48.704Z,100935.91
2018-08-22T15:17:18.300Z,100940.08
2018-08-22T15:19:47.740Z,100936.36
2018-08-22T15:22:17.211Z,100929.42
2018-08-22T15:24:46.744Z,100925.17
2018-08-22T15:27:16.235Z,100927.98
2018-08-22T15:29:45.687Z,100920.88
2018-08-22T15:32:15.101Z,100918.19
2018-08-22T15:34:52.488Z,100911.36
2018-08-22T15:37:22.778Z,100909.19
2018-08-22T15:39:52.228Z,100911.00
2018-08-22T15:42:21.680Z,100904.65
2018-08-22T15:44:51.218Z,100902.83
2018-08-22T15:47:20.720Z,100893.73
2018-08-22T15:49:50.181Z,100900.92
2018-08-22T15:52:19.580Z,100898.72
2018-08-22T15:55:06.085Z,100896.98
2018-08-22T15:57:53.493Z,100900.82
2018-08-22T16:00:47.089Z,100891.12
2018-08-22T16:03:16.523Z,100888.99
2018-08-22T16:05:46.768Z,100889.95
2018-08-22T16:08:19.705Z,100888.30
2018-08-22T16:10:49.098Z,100889.80
2018-08-22T16:13:23.641Z,100889.53
2018-08-22T16:15:54.337Z,100886.15
2018-08-22T16:18:23.926Z,100875.75
2018-08-22T16:21:00.307Z,100876.98
2018-08-22T16:23:32.090Z,100875.41
2018-08-22T16:26:04.628Z,100871.16
2018-08-22T16:28:55.930Z,100871.80
2018-08-22T16:31:33.172Z,100866.36
2018-08-22T16:34:02.720Z,100868.42
2018-08-22T16:36:32.333Z,100862.87
2018-08-22T16:39:02.368Z,100862.24
2018-08-22T16:41:31.830Z,100864.30
2018-08-22T16:44:01.267Z,100856.89
2018-08-22T16:46:30.737Z,100856.30
2018-08-22T16:49:00.256Z,100857.41
2018-08-22T16:51:29.740Z,100855.36
2018-08-22T16:54:04.558Z,100853.42
2018-08-22T16:56:34.978Z,100853.66
2018-08-22T16:59:09.448Z,100854.29
2018-08-22T17:01:42.640Z,100854.64
2018-08-22T17:04:12.053Z,100846.67
2018-08-22T17:06:41.537Z,100852.63
2018-08-22T17:09:11.685Z,100850.55
2018-08-22T17:11:41.384Z,100848.78
2018-08-22T17:14:10.880Z,100846.28
2018-08-22T17:16:40.297Z,100841.45
2018-08-22T17:19:09.756Z,100846.28
2018-08-22T17:21:39.245Z,100844.33
2018-08-22T17:24:08.657Z,100841.30
2018-08-22T17:26:38.112Z,100840.16
2018-08-22T17:29:07.603Z,100840.23
2018-08-22T17:31:37.033Z,100842.77
2018-08-22T17:34:06.509Z,100835.25
2018-08-22T17:36:35.962Z,100834.93
2018-08-22T17:39:07.018Z,100838.95
2018-08-22T17:41:36.482Z,100841.64
2018-08-22T17:44:09.791Z,100837.08
2018-08-22T17:46:47.867Z,100838.27
2018-08-22T17:49:17.689Z,100834.05
2018-08-22T17:52:00.012Z,100840.96
2018-08-22T17:54:29.540Z,100839.19
2018-08-22T17:57:14.710Z,100833.98
2018-08-22T17:59:44.919Z,100836.86
2018-08-22T18:02:14.435Z,100833.92
2018-08-22T18:05:03.932Z,100835.34
2018-08-22T18:07:33.336Z,100830.65
2018-08-22T18:10:04.269Z,100838.61
2018-08-22T18:12:33.811Z,100835.04
2018-08-22T18:15:04.200Z,100837.81
2018-08-22T18:17:33.849Z,100838.14
2018-08-22T18:20:03.407Z,100839.00
2018-08-22T18:22:35.772Z,100841.53
2018-08-22T18:25:05.848Z,100836.02
2018-08-22T18:27:35.371Z,100839.28
2018-08-22T18:30:04.903Z,100840.34
2018-08-22T18:32:34.413Z,100840.23
2018-08-22T18:35:10.061Z,100845.82
2018-08-22T18:37:40.090Z,100850.55
2018-08-22T18:40:26.696Z,100849.89
2018-08-22T18:42:59.081Z,100849.73
2018-08-22T18:45:29.063Z,100853.55
2018-08-22T18:47:59.288Z,100851.07
2018-08-22T18:50:28.748Z,100852.52
2018-08-22T18:52:59.317Z,100855.69
2018-08-22T18:55:30.955Z,100854.63
2018-08-22T18:58:02.182Z,100849.00
2018-08-22T19:00:35.176Z,100854.98
2018-08-22T19:03:04.614Z,100850.79
2018-08-22T19:05:35.194Z,100854.04
2018-08-22T19:08:12.197Z,100859.14
2018-08-22T19:10:42.918Z,100850.48
2018-08-22T19:13:16.382Z,100856.92
2018-08-22T19:15:53.173Z,100856.22
2018-08-22T19:18:22.904Z,100849.77
2018-08-22T19:20:57.979Z,100853.01
2018-08-22T19:23:27.493Z,100848.31
2018-08-22T19:25:57.581Z,100848.98
2018-08-22T19:28:27.021Z,100854.13
2018-08-22T19:30:56.490Z,100852.41
2018-08-22T19:33:27.124Z,100851.65
2018-08-22T19:35:56.791Z,100853.53
2018-08-22T19:38:27.672Z,100853.70
2018-08-22T19:40:57.909Z,100858.27
2018-08-22T19:43:27.393Z,100852.59
2018-08-22T19:45:56.882Z,100854.52
2018-08-22T19:48:26.340Z,100848.44
2018-08-22T19:50:55.777Z,100849.94
2018-08-22T19:53:25.236Z,100855.02
2018-08-22T19:55:54.641Z,100851.27
2018-08-22T19:58:28.180Z,100849.58
2018-08-22T20:00:59.352Z,100851.78
2018-08-22T20:03:34.528Z,100850.50
2018-08-22T20:06:03.974Z,100849.73
2018-08-22T20:08:37.317Z,100849.47
2018-08-22T20:11:07.389Z,100848.75
2018-08-22T20:13:50.233Z,100853.72
2018-08-22T20:16:21.004Z,100852.03
2018-08-22T20:18:53.852Z,100844.19
2018-08-22T20:21:31.188Z,100848.80
2018-08-22T20:24:01.258Z,100846.36
2018-08-22T20:26:31.048Z,100840.86
2018-08-22T20:29:01.653Z,100847.61
2018-08-22T20:31:31.411Z,100840.33
2018-08-22T20:34:12.984Z,100842.72
2018-08-22T20:36:46.446Z,100848.66
2018-08-22T20:39:16.135Z,100843.89
2018-08-22T20:41:45.796Z,100847.55
2018-08-22T20:44:18.172Z,100846.73
2018-08-22T20:46:48.901Z,100852.88
2018-08-22T20:49:20.598Z,100848.94
2018-08-22T20:51:50.324Z,100852.05
2018-08-22T20:54:23.989Z,100853.53
2018-08-22T20:56:58.522Z,100856.75
2018-08-22T20:59:28.200Z,100857.80
2018-08-22T21:02:07.015Z,100851.23
2018-08-22T21:04:36.881Z,100848.27
2018-08-22T21:07:06.666Z,100846.20
2018-08-22T21:09:36.093Z,100847.75
2018-08-22T21:12:06.033Z,100845.28
2018-08-22T21:14:35.483Z,100843.64
2018-08-22T21:17:05.228Z,100841.57
2018-08-22T21:19:34.667Z,100838.14
2018-08-22T21:22:11.417Z,100844.83
2018-08-22T21:24:41.196Z,100843.59
2018-08-22T21:27:10.581Z,100842.02
2018-08-22T21:29:40.086Z,100844.35
2018-08-22T21:32:09.792Z,100846.09
2018-08-22T21:34:39.357Z,100844.35
2018-08-22T21:37:28.060Z,100846.23
2018-08-22T21:39:57.555Z,100843.73
2018-08-22T21:42:34.551Z,100840.30
2018-08-22T21:45:04.351Z,100837.77
2018-08-22T21:47:33.823Z,100837.44
2018-08-22T21:50:03.371Z,100837.16
2018-08-22T21:52:53.170Z,100839.02
2018-08-22T21:55:30.784Z,100840.94
2018-08-22T21:58:00.252Z,100832.26
2018-08-22T22:00:30.375Z,100836.78
2018-08-22T22:03:00.225Z,100834.59
2018-08-22T22:05:43.442Z,100838.57
2018-08-22T22:08:13.014Z,100835.50
2018-08-22T22:10:42.457Z,100831.19
2018-08-22T22:13:12.408Z,100829.94
2018-08-22T22:15:45.878Z,100822.50
2018-08-22T22:18:15.326Z,100823.87
2018-08-22T22:20:50.057Z,100823.47
2018-08-22T22:23:19.477Z,100827.49
2018-08-22T22:25:48.919Z,100823.59
2018-08-22T22:28:18.876Z,100824.13
2018-08-22T22:30:48.337Z,100828.73
2018-08-22T22:33:17.756Z,100820.84
2018-08-22T22:35:47.233Z,100814.29
2018-08-22T22:38:16.806Z,100814.83
2018-08-22T22:40:46.312Z,100813.16
2018-08-22T22:43:15.813Z,100815.40
2018-08-22T22:45:45.379Z,100811.91
2018-08-22T22:48:19.303Z,100810.21
2018-08-22T22:50:48.693Z,100808.09
2018-08-22T22:53:18.193Z,100810.86
2018-08-22T22:55:47.639Z,100806.58
2018-08-22T22:58:17.091Z,100803.63
2018-08-22T23:00:46.522Z,100798.85
2018-08-22T23:03:16.060Z,100802.48
2018-08-22T23:05:45.558Z,100803.94
2018-08-22T23:08:14.976Z,100803.14
2018-08-22T23:10:44.403Z,100796.20
2018-08-22T23:13:14.069Z,100794.16
2018-08-22T23:15:43.990Z,100793.81
2018-08-22T23:18:13.496Z,100787.25
2018-08-22T23:20:43.768Z,100788.70
2018-08-22T23:23:29.686Z,100784.38
2018-08-22T23:26:08.186Z,100783.13
2018-08-22T23:28:37.648Z,100782.73
2018-08-22T23:31:07.056Z,100780.23
2018-08-22T23:33:37.040Z,100780.76
2018-08-22T23:36:06.651Z,100769.77
2018-08-22T23:38:37.489Z,100767.65
2018-08-22T23:41:06.961Z,100761.97
2018-08-22T23:43:42.138Z,100754.50
2018-08-22T23:46:12.436Z,100761.20
2018-08-22T23:48:42.117Z,100759.95
2018-08-22T23:51:13.641Z,100753.92
2018-08-22T23:53:45.908Z,100756.29
2018-08-22T23:56:22.903Z,100754.23
2018-08-22T23:58:52.864Z,100750.91
